createdAt,value
2023-05-25T00:01:35.644Z,82.04
2023-05-25T00:06:42.983Z,82.08
2023-05-25T00:11:45.575Z,82.07
2023-05-25T00:16:51.632Z,81.81
2023-05-25T00:21:54.765Z,81.77
2023-05-25T00:27:01.237Z,81.83
2023-05-25T00:32:06.726Z,81.94
2023-05-25T00:37:09.035Z,81.58
2023-05-25T00:42:24.554Z,81.46
2023-05-25T00:47:27.654Z,81.50
2023-05-25T00:52:30.049Z,81.42
2023-05-25T00:57:57.357Z,81.40
2023-05-25T01:03:14.722Z,81.29
2023-05-25T01:08:28.693Z,81.47
2023-05-25T01:13:34.459Z,81.53
2023-05-25T01:18:39.943Z,81.49
2023-05-25T01:23:54.220Z,81.50
2023-05-25T01:29:01.954Z,81.57
2023-05-25T01:34:09.629Z,81.60
2023-05-25T01:39:12.798Z,81.44
2023-05-25T01:44:19.335Z,81.36
2023-05-25T01:49:52.408Z,81.29
2023-05-25T01:55:06.452Z,81.33
2023-05-25T02:00:21.702Z,81.24
2023-05-25T02:05:23.870Z,81.29
2023-05-25T02:10:26.232Z,81.39
2023-05-25T02:15:34.098Z,81.51
2023-05-25T02:20:37.786Z,81.46
2023-05-25T02:25:39.816Z,81.64
2023-05-25T02:30:42.030Z,81.68
2023-05-25T02:35:47.147Z,81.77
2023-05-25T02:40:58.572Z,81.85
2023-05-25T02:46:09.812Z,81.90
2023-05-25T02:51:15.210Z,81.94
2023-05-25T02:56:31.404Z,82.02
2023-05-25T03:06:51.810Z,81.90
2023-05-25T03:12:03.522Z,81.87
2023-05-25T03:17:07.835Z,81.89
2023-05-25T03:22:19.043Z,81.99
2023-05-25T03:27:21.450Z,81.91
2023-05-25T03:32:25.267Z,82.04
2023-05-25T03:37:31.101Z,81.99
2023-05-25T03:42:37.480Z,82.08
2023-05-25T03:47:40.797Z,81.99
2023-05-25T03:52:43.829Z,82.01
2023-05-25T03:57:45.992Z,82.24
2023-05-25T04:02:48.568Z,82.50
2023-05-25T04:07:52.234Z,82.66
2023-05-25T04:12:57.512Z,82.73
2023-05-25T04:18:03.040Z,82.95
2023-05-25T04:23:06.331Z,82.88
2023-05-25T04:28:09.353Z,83.01
2023-05-25T04:33:22.123Z,83.17
2023-05-25T04:38:35.507Z,83.09
2023-05-25T04:43:40.428Z,83.04
2023-05-25T04:48:48.536Z,83.05
2023-05-25T04:53:51.310Z,83.00
2023-05-25T04:58:54.166Z,82.99
2023-05-25T05:03:59.834Z,83.06
2023-05-25T05:09:03.292Z,83.08
2023-05-25T05:14:08.630Z,83.24
2023-05-25T05:19:11.860Z,83.23
2023-05-25T05:24:16.446Z,83.24
2023-05-25T05:29:19.984Z,83.26
2023-05-25T05:34:22.997Z,83.14
2023-05-25T05:39:27.379Z,83.04
2023-05-25T05:44:30.948Z,83.01
2023-05-25T05:49:35.045Z,83.08
2023-05-25T05:54:38.668Z,83.09
2023-05-25T05:59:55.884Z,83.04
2023-05-25T06:04:58.375Z,82.87
2023-05-25T06:10:01.097Z,82.73
2023-05-25T06:15:03.723Z,82.59
2023-05-25T06:20:11.150Z,82.51
2023-05-25T06:25:40.457Z,82.33
2023-05-25T06:30:43.775Z,82.26
2023-05-25T06:35:52.761Z,82.24
2023-05-25T06:41:02.666Z,82.30
2023-05-25T06:46:05.109Z,82.44
2023-05-25T06:51:17.084Z,82.47
2023-05-25T06:56:20.056Z,82.58
2023-05-25T07:01:25.789Z,82.36
2023-05-25T07:06:28.157Z,82.09
2023-05-25T07:11:30.218Z,81.68
2023-05-25T07:16:33.252Z,81.50
2023-05-25T07:21:37.270Z,81.24
2023-05-25T07:26:50.680Z,81.27
2023-05-25T07:31:52.696Z,81.43
2023-05-25T07:37:33.457Z,81.65
2023-05-25T07:42:36.751Z,81.57
2023-05-25T07:47:41.943Z,81.39
2023-05-25T07:52:45.266Z,81.34
2023-05-25T07:57:47.434Z,81.17
2023-05-25T08:02:53.326Z,81.10
2023-05-25T08:07:56.323Z,80.99
2023-05-25T08:12:59.208Z,80.77
2023-05-25T08:18:06.665Z,80.49
2023-05-25T08:23:09.690Z,80.58
2023-05-25T08:28:11.738Z,80.24
2023-05-25T08:33:15.065Z,80.20
2023-05-25T08:38:17.108Z,80.49
2023-05-25T08:43:28.704Z,80.36
2023-05-25T08:48:41.168Z,79.96
2023-05-25T08:53:45.360Z,79.69
2023-05-25T08:59:16.882Z,79.58
2023-05-25T09:04:21.188Z,79.45
2023-05-25T09:09:23.810Z,79.23
2023-05-25T09:14:28.422Z,79.00
2023-05-25T09:19:30.547Z,79.00
2023-05-25T09:24:36.980Z,78.91
2023-05-25T09:29:49.534Z,78.90
2023-05-25T09:34:51.803Z,78.72
2023-05-25T09:39:53.748Z,78.41
2023-05-25T09:44:55.714Z,78.09
2023-05-25T09:50:00.155Z,77.45
2023-05-25T09:55:10.478Z,77.39
2023-05-25T10:00:13.245Z,76.86
2023-05-25T10:05:16.049Z,77.14
2023-05-25T10:10:19.253Z,77.04
2023-05-25T10:15:22.427Z,76.72
2023-05-25T10:20:29.631Z,76.56
2023-05-25T10:26:09.527Z,76.57
2023-05-25T10:31:18.774Z,76.27
2023-05-25T10:36:41.233Z,76.85
2023-05-25T10:41:46.150Z,76.70
2023-05-25T10:46:55.671Z,76.16
2023-05-25T10:51:59.854Z,75.86
2023-05-25T10:57:16.145Z,75.68
2023-05-25T11:02:23.766Z,75.98
2023-05-25T11:07:26.099Z,75.35
2023-05-25T11:12:28.509Z,75.44
2023-05-25T11:17:32.879Z,74.88
2023-05-25T11:22:37.388Z,74.89
2023-05-25T11:27:47.372Z,74.91
2023-05-25T11:32:50.918Z,74.68
2023-05-25T11:37:55.430Z,74.83
2023-05-25T11:43:00.817Z,74.91
2023-05-25T11:48:05.176Z,75.18
2023-05-25T11:53:07.377Z,75.12
2023-05-25T11:58:09.800Z,75.29
2023-05-25T12:03:33.184Z,75.31
2023-05-25T12:08:36.622Z,75.27
2023-05-25T12:13:41.016Z,75.63
2023-05-25T12:18:43.443Z,75.48
2023-05-25T12:23:46.357Z,75.31
2023-05-25T12:29:10.286Z,74.87
2023-05-25T12:34:13.551Z,74.73
2023-05-25T12:39:31.744Z,74.97
2023-05-25T12:44:36.047Z,74.64
2023-05-25T12:49:39.057Z,74.73
2023-05-25T12:54:46.140Z,74.60
2023-05-25T12:59:56.429Z,74.54
2023-05-25T13:04:58.878Z,74.83
2023-05-25T13:10:00.924Z,74.87
2023-05-25T13:15:09.858Z,74.97
2023-05-25T13:20:16.235Z,75.05
2023-05-25T13:25:20.936Z,75.11
2023-05-25T13:30:23.684Z,75.11
2023-05-25T13:35:41.863Z,74.73
2023-05-25T13:40:45.485Z,74.90
2023-05-25T13:45:48.086Z,74.71
2023-05-25T13:50:50.571Z,74.56
2023-05-25T13:55:52.596Z,74.40
2023-05-25T14:00:54.607Z,74.45
2023-05-25T14:05:57.019Z,74.91
2023-05-25T14:10:59.029Z,74.94
2023-05-25T14:16:01.191Z,75.02
2023-05-25T14:21:03.627Z,75.37
2023-05-25T14:26:05.761Z,75.44
2023-05-25T14:31:07.897Z,75.41
2023-05-25T14:36:11.134Z,75.46
2023-05-25T14:41:13.166Z,75.57
2023-05-25T14:46:18.364Z,75.41
2023-05-25T14:51:20.462Z,75.38
2023-05-25T14:56:23.667Z,75.26
2023-05-25T15:01:29.953Z,75.25
2023-05-25T15:06:34.694Z,75.44
2023-05-25T15:11:36.991Z,75.47
2023-05-25T15:16:39.067Z,75.67
2023-05-25T15:21:41.216Z,75.97
2023-05-25T15:26:43.852Z,76.00
2023-05-25T15:31:46.245Z,75.90
2023-05-25T15:36:50.453Z,75.85
2023-05-25T15:41:52.246Z,76.11
2023-05-25T15:46:54.258Z,76.01
2023-05-25T15:51:56.225Z,76.00
2023-05-25T15:56:58.071Z,76.12
2023-05-25T16:02:00.248Z,76.17
2023-05-25T16:07:04.332Z,76.59
2023-05-25T16:12:07.261Z,76.38
2023-05-25T16:17:09.201Z,76.34
2023-05-25T16:22:11.157Z,76.30
2023-05-25T16:27:13.324Z,75.97
2023-05-25T16:32:15.520Z,75.74
2023-05-25T16:37:17.780Z,75.99
2023-05-25T16:42:19.941Z,76.21
2023-05-25T16:47:22.732Z,76.30
2023-05-25T16:52:24.714Z,76.56
2023-05-25T16:57:27.493Z,76.35
2023-05-25T17:02:29.637Z,76.23
2023-05-25T17:07:33.353Z,76.44
2023-05-25T17:12:35.555Z,76.26
2023-05-25T17:17:37.617Z,76.74
2023-05-25T17:22:39.764Z,76.85
2023-05-25T17:27:41.817Z,77.19
2023-05-25T17:32:43.811Z,77.36
2023-05-25T17:37:45.721Z,77.23
2023-05-25T17:42:47.672Z,77.11
2023-05-25T17:47:50.181Z,77.38
2023-05-25T17:52:52.289Z,77.47
2023-05-25T17:57:54.351Z,77.48
2023-05-25T18:02:56.544Z,77.38
2023-05-25T18:07:58.772Z,77.74
2023-05-25T18:13:01.015Z,77.93
2023-05-25T18:18:05.720Z,77.96
2023-05-25T18:23:08.369Z,78.07
2023-05-25T18:28:12.326Z,78.11
2023-05-25T18:33:14.518Z,78.21
2023-05-25T18:38:16.449Z,78.55
2023-05-25T18:43:18.584Z,78.99
2023-05-25T18:48:21.215Z,79.02
2023-05-25T18:53:23.190Z,79.21
2023-05-25T18:58:25.041Z,79.23
2023-05-25T19:03:27.591Z,79.24
2023-05-25T19:08:29.711Z,79.66
2023-05-25T19:13:31.667Z,79.71
2023-05-25T19:18:33.370Z,79.92
2023-05-25T19:23:35.404Z,80.09
2023-05-25T19:28:37.401Z,80.26
2023-05-25T19:33:39.263Z,80.19
2023-05-25T19:38:42.366Z,80.76
2023-05-25T19:43:44.507Z,80.74
2023-05-25T19:48:46.369Z,80.89
2023-05-25T19:53:49.102Z,81.10
2023-05-25T19:58:51.107Z,81.20
2023-05-25T20:03:56.033Z,81.11
2023-05-25T20:08:58.553Z,81.25
2023-05-25T20:14:03.335Z,81.48
2023-05-25T20:19:11.069Z,81.55
2023-05-25T20:24:22.234Z,81.40
2023-05-25T20:29:27.488Z,81.51
2023-05-25T20:34:34.122Z,81.60
2023-05-25T20:39:36.575Z,81.88
2023-05-25T20:44:42.134Z,82.01
2023-05-25T20:49:44.263Z,82.09
2023-05-25T20:54:48.795Z,82.15
2023-05-25T20:59:54.397Z,82.24
2023-05-25T21:05:05.253Z,82.37
2023-05-25T21:10:15.716Z,82.47
2023-05-25T21:15:32.678Z,82.39
2023-05-25T21:20:39.895Z,82.21
2023-05-25T21:25:42.321Z,82.07
2023-05-25T21:30:49.824Z,82.30
2023-05-25T21:36:02.579Z,82.52
2023-05-25T21:41:15.458Z,82.49
2023-05-25T21:46:21.243Z,82.59
2023-05-25T21:51:34.436Z,82.68
2023-05-25T21:56:52.105Z,82.67
2023-05-25T22:02:14.859Z,82.57
2023-05-25T22:07:30.792Z,82.65
2023-05-25T22:12:36.651Z,82.66
2023-05-25T22:17:41.687Z,82.74
2023-05-25T22:23:04.612Z,82.93
2023-05-25T22:28:10.813Z,82.97
2023-05-25T22:33:17.904Z,83.01
2023-05-25T22:38:25.443Z,82.94
2023-05-25T22:43:55.624Z,82.97
2023-05-25T22:49:06.410Z,83.13
2023-05-25T22:54:36.788Z,83.19
2023-05-25T22:59:51.224Z,83.26
2023-05-25T23:05:09.753Z,83.57
2023-05-25T23:10:27.005Z,83.49
2023-05-25T23:15:44.313Z,83.24
2023-05-25T23:20:59.977Z,83.48
2023-05-25T23:26:22.158Z,83.60
2023-05-25T23:31:41.040Z,83.29
2023-05-25T23:36:49.277Z,83.36
2023-05-25T23:42:10.297Z,83.43
2023-05-25T23:47:16.371Z,83.45
2023-05-25T23:52:48.846Z,83.45
2023-05-25T23:58:36.157Z,83.38
